Time;durP1;ratioP1;P1;durP2;ratioP2;P2;SDS_P1;SDS_P2;PMS_P1;PMS_P2;Temp;Humidity;BMP_temperature;BMP_pressure;BME280_temperature;BME280_humidity;BME280_pressure;Samples;Min_cycle;Max_cycle;Signal;HPM_P1;HPM_P2
2021/10/14 00:01:04;;;;;;;13.73;10.77;;;7.20;99.90;;;;;;5064488;28;20572;-68
2021/10/14 00:03:31;;;;;;;18.63;11.77;;;7.20;99.90;;;;;;5053783;28;20662;-69
2021/10/14 00:05:58;;;;;;;15.77;10.90;;;7.30;99.90;;;;;;5067197;28;20205;-69
2021/10/14 00:08:25;;;;;;;16.33;12.00;;;7.30;99.90;;;;;;5054290;28;20232;-68
2021/10/14 00:10:52;;;;;;;16.60;11.83;;;7.30;99.90;;;;;;5055863;28;20212;-69
2021/10/14 00:13:19;;;;;;;15.77;11.77;;;7.30;99.90;;;;;;5063729;28;20289;-69
2021/10/14 00:15:47;;;;;;;21.60;12.37;;;7.30;99.90;;;;;;5053309;28;20628;-69
2021/10/14 00:18:14;;;;;;;18.30;12.30;;;7.30;99.90;;;;;;5056616;28;20757;-69
2021/10/14 00:20:41;;;;;;;18.30;12.93;;;7.20;99.90;;;;;;5073450;28;20272;-69
2021/10/14 00:23:08;;;;;;;19.33;12.13;;;7.30;99.90;;;;;;5070292;28;20326;-69
2021/10/14 00:25:35;;;;;;;17.67;12.30;;;7.30;99.90;;;;;;5066206;28;20214;-69
2021/10/14 00:28:01;;;;;;;20.60;13.60;;;7.20;99.90;;;;;;5058842;28;20298;-69
2021/10/14 00:30:28;;;;;;;20.33;12.77;;;7.20;99.90;;;;;;5053735;28;20694;-69
2021/10/14 00:32:57;;;;;;;20.03;12.37;;;7.20;99.90;;;;;;5053095;28;20594;-70
2021/10/14 00:35:24;;;;;;;20.70;13.00;;;7.20;99.90;;;;;;5069055;28;20220;-69
2021/10/14 00:37:50;;;;;;;18.03;12.03;;;7.10;99.90;;;;;;5066216;28;20676;-68
2021/10/14 00:40:18;;;;;;;22.33;12.77;;;7.10;99.90;;;;;;5059712;28;20220;-69
2021/10/14 00:42:45;;;;;;;18.37;12.47;;;7.00;99.90;;;;;;5062155;28;20326;-68
2021/10/14 00:45:13;;;;;;;20.43;12.57;;;7.00;99.90;;;;;;5070821;28;20219;-69
2021/10/14 00:47:40;;;;;;;20.23;13.00;;;7.00;99.90;;;;;;5053411;28;20763;-69
2021/10/14 00:50:10;;;;;;;23.47;12.97;;;6.90;99.90;;;;;;5052842;28;20582;-69
2021/10/14 00:52:40;;;;;;;20.20;14.27;;;6.80;99.90;;;;;;5054464;28;20210;-69
2021/10/14 00:55:08;;;;;;;19.47;13.10;;;6.80;99.90;;;;;;5064419;28;20210;-70
2021/10/14 00:57:35;;;;;;;20.73;13.50;;;6.70;99.90;;;;;;5056868;28;20210;-70
2021/10/14 01:00:03;;;;;;;24.00;14.13;;;6.70;99.90;;;;;;5059325;28;20664;-70
2021/10/14 01:02:29;;;;;;;23.00;14.47;;;6.80;99.90;;;;;;5065843;28;20571;-70
2021/10/14 01:04:56;;;;;;;19.50;13.33;;;6.60;99.90;;;;;;5063311;28;20677;-70
2021/10/14 01:07:25;;;;;;;20.70;13.87;;;6.60;99.90;;;;;;5061087;28;20210;-67
2021/10/14 01:09:52;;;;;;;22.27;13.33;;;6.60;99.90;;;;;;5057671;28;20212;-68
2021/10/14 01:12:20;;;;;;;21.43;13.83;;;6.50;99.90;;;;;;5065504;28;20201;-68
2021/10/14 01:14:46;;;;;;;20.10;14.17;;;6.50;99.90;;;;;;5055986;28;20719;-69
2021/10/14 01:17:13;;;;;;;21.10;14.23;;;6.50;99.90;;;;;;5051636;28;20218;-69
2021/10/14 01:19:42;;;;;;;20.70;13.93;;;6.40;99.90;;;;;;5063544;28;20201;-70
2021/10/14 01:22:09;;;;;;;20.20;13.23;;;6.40;99.90;;;;;;5067301;28;20678;-69
2021/10/14 01:24:36;;;;;;;22.67;14.53;;;6.40;99.90;;;;;;5062676;28;20205;-70
2021/10/14 01:27:04;;;;;;;16.63;12.47;;;6.40;99.90;;;;;;5053404;28;20558;-69
2021/10/14 01:29:31;;;;;;;20.47;13.30;;;6.30;99.90;;;;;;5063764;28;20237;-69
2021/10/14 01:31:58;;;;;;;18.97;12.73;;;6.30;99.90;;;;;;5056505;28;20202;-67
2021/10/14 01:34:25;;;;;;;21.60;13.53;;;6.30;99.90;;;;;;5063312;28;20224;-68
2021/10/14 01:36:53;;;;;;;19.00;12.63;;;6.30;99.90;;;;;;5055578;28;20312;-69
2021/10/14 01:39:20;;;;;;;18.43;13.10;;;6.30;99.90;;;;;;5060273;28;20205;-69
2021/10/14 01:41:49;;;;;;;20.00;12.93;;;6.30;99.90;;;;;;5057544;28;20230;-69
2021/10/14 01:44:16;;;;;;;16.93;12.63;;;6.30;99.90;;;;;;5065749;28;20666;-68
2021/10/14 01:46:43;;;;;;;18.83;13.10;;;6.30;99.90;;;;;;5052221;28;20210;-69
2021/10/14 01:49:10;;;;;;;20.30;12.33;;;6.30;99.90;;;;;;5055144;28;20202;-68
2021/10/14 01:51:36;;;;;;;18.10;13.03;;;6.30;99.90;;;;;;5062817;28;20202;-70
2021/10/14 01:54:05;;;;;;;16.20;12.73;;;6.20;99.90;;;;;;5058501;28;20209;-69
2021/10/14 01:56:31;;;;;;;19.53;12.87;;;6.20;99.90;;;;;;5055454;28;20216;-68
2021/10/14 01:58:58;;;;;;;18.30;12.87;;;6.20;99.90;;;;;;5067417;28;20209;-68
2021/10/14 02:01:25;;;;;;;19.33;12.43;;;6.20;99.90;;;;;;5061674;28;20292;-70
2021/10/14 02:03:52;;;;;;;17.93;12.63;;;6.20;99.90;;;;;;5061769;28;20201;-68
2021/10/14 02:06:19;;;;;;;18.47;12.07;;;6.20;99.90;;;;;;5073476;28;20211;-68
2021/10/14 02:08:46;;;;;;;17.13;11.77;;;6.10;99.90;;;;;;5072029;28;20205;-68
2021/10/14 02:11:14;;;;;;;19.47;11.93;;;6.10;99.90;;;;;;5059281;28;20205;-68
2021/10/14 02:13:41;;;;;;;18.27;11.80;;;6.10;99.90;;;;;;5055124;28;20289;-67
2021/10/14 02:16:07;;;;;;;17.43;11.80;;;6.10;99.90;;;;;;5055510;28;20292;-68
2021/10/14 02:18:34;;;;;;;20.30;12.60;;;6.10;99.90;;;;;;5054907;28;20213;-67
2021/10/14 02:21:01;;;;;;;18.00;12.77;;;6.10;99.90;;;;;;5055369;28;20577;-67
2021/10/14 02:23:28;;;;;;;18.67;13.30;;;6.10;99.90;;;;;;5062504;28;20226;-69
2021/10/14 02:25:55;;;;;;;21.80;14.13;;;6.00;99.90;;;;;;5055925;28;20222;-69
2021/10/14 02:28:23;;;;;;;22.73;14.30;;;6.00;99.90;;;;;;5070622;28;20244;-69
2021/10/14 02:30:50;;;;;;;22.37;12.97;;;5.90;99.90;;;;;;5066972;28;20673;-69
2021/10/14 02:33:17;;;;;;;21.33;14.17;;;6.00;99.90;;;;;;5054997;28;20202;-68
2021/10/14 02:35:44;;;;;;;22.73;14.77;;;5.90;99.90;;;;;;5054949;28;20230;-68
2021/10/14 02:38:11;;;;;;;21.33;14.10;;;5.90;99.90;;;;;;5059621;28;20201;-69
2021/10/14 02:40:37;;;;;;;28.53;15.43;;;5.80;99.90;;;;;;5055394;28;20218;-68
2021/10/14 02:43:04;;;;;;;21.90;14.20;;;5.80;99.90;;;;;;5056109;28;20225;-69
2021/10/14 02:45:32;;;;;;;20.47;14.37;;;5.80;99.90;;;;;;5055479;28;20229;-69
2021/10/14 02:47:59;;;;;;;24.10;15.27;;;5.80;99.90;;;;;;5054602;28;20570;-69
2021/10/14 02:50:26;;;;;;;25.73;15.67;;;5.80;99.90;;;;;;5055901;28;20213;-68
2021/10/14 02:52:53;;;;;;;28.37;16.17;;;5.80;99.90;;;;;;5068227;28;20220;-68
2021/10/14 02:55:20;;;;;;;21.70;15.37;;;5.80;99.90;;;;;;5055391;28;20210;-68
2021/10/14 02:57:46;;;;;;;25.67;15.60;;;5.80;99.90;;;;;;5056027;28;20225;-68
2021/10/14 03:00:14;;;;;;;28.83;16.07;;;5.80;99.90;;;;;;5054747;28;20445;-68
2021/10/14 03:02:42;;;;;;;25.70;16.50;;;5.80;99.90;;;;;;5059575;28;20789;-68
2021/10/14 03:05:09;;;;;;;22.47;15.40;;;5.80;99.90;;;;;;5055295;28;20206;-67
2021/10/14 03:07:36;;;;;;;24.67;15.73;;;5.80;99.90;;;;;;5064931;28;20198;-68
2021/10/14 03:10:04;;;;;;;24.77;15.50;;;5.90;99.90;;;;;;5054497;28;20217;-68
2021/10/14 03:12:30;;;;;;;25.27;15.23;;;5.90;99.90;;;;;;5054307;28;20655;-68
2021/10/14 03:14:57;;;;;;;22.33;14.30;;;5.90;99.90;;;;;;5060467;28;20293;-67
2021/10/14 03:17:24;;;;;;;26.43;15.60;;;5.90;99.90;;;;;;5054250;28;20206;-67
2021/10/14 03:19:52;;;;;;;22.83;14.17;;;5.90;99.90;;;;;;5053705;28;20232;-67
2021/10/14 03:22:19;;;;;;;26.90;15.13;;;5.90;99.90;;;;;;5058846;28;20232;-68
2021/10/14 03:24:46;;;;;;;30.87;16.27;;;5.90;99.90;;;;;;5067057;28;20209;-68
2021/10/14 03:27:13;;;;;;;27.83;15.20;;;5.80;99.90;;;;;;5053910;28;20289;-69
2021/10/14 03:29:40;;;;;;;29.47;16.17;;;5.80;99.90;;;;;;5053721;28;20244;-69
2021/10/14 03:32:07;;;;;;;26.70;15.37;;;5.70;99.90;;;;;;5054003;28;20408;-68
2021/10/14 03:34:34;;;;;;;27.73;17.20;;;5.70;99.90;;;;;;5053994;28;20210;-67
2021/10/14 03:37:02;;;;;;;29.10;15.50;;;5.70;99.90;;;;;;5053405;28;20221;-67
2021/10/14 03:39:29;;;;;;;23.30;14.57;;;5.60;99.90;;;;;;5061594;28;20669;-68
2021/10/14 03:41:56;;;;;;;28.00;15.63;;;5.60;99.90;;;;;;5057967;28;20297;-68
2021/10/14 03:44:23;;;;;;;26.93;16.47;;;5.60;99.90;;;;;;5061247;28;20215;-69
2021/10/14 03:46:50;;;;;;;29.87;16.87;;;5.50;99.90;;;;;;5059992;28;20198;-69
2021/10/14 03:49:16;;;;;;;26.30;16.10;;;5.50;99.90;;;;;;5054219;28;20208;-69
2021/10/14 03:51:43;;;;;;;26.73;16.37;;;5.40;99.90;;;;;;5053811;28;20547;-69
2021/10/14 03:54:11;;;;;;;33.63;16.83;;;5.40;99.90;;;;;;5053691;28;20198;-69
2021/10/14 03:56:38;;;;;;;28.63;15.53;;;5.40;99.90;;;;;;5053324;28;20201;-69
2021/10/14 03:59:05;;;;;;;28.47;15.93;;;5.30;99.90;;;;;;5058404;28;20577;-69
2021/10/14 04:01:33;;;;;;;26.47;15.27;;;5.30;99.90;;;;;;5061073;28;20696;-68
2021/10/14 04:03:59;;;;;;;27.37;15.53;;;5.30;99.90;;;;;;5071896;28;20341;-70
2021/10/14 04:06:26;;;;;;;24.17;14.77;;;5.20;99.90;;;;;;5059344;28;20220;-69
2021/10/14 04:08:53;;;;;;;25.10;16.00;;;5.20;99.90;;;;;;5058680;28;20220;-69
2021/10/14 04:11:21;;;;;;;28.80;14.60;;;5.10;99.90;;;;;;5066477;28;20208;-69
2021/10/14 04:13:48;;;;;;;23.23;13.33;;;5.10;99.90;;;;;;5062002;28;20206;-70
2021/10/14 04:16:15;;;;;;;22.47;15.00;;;5.00;99.90;;;;;;5062429;28;20209;-69
2021/10/14 04:18:42;;;;;;;23.90;13.93;;;5.00;99.90;;;;;;5053463;28;20210;-69
2021/10/14 04:21:09;;;;;;;23.83;14.27;;;4.90;99.90;;;;;;5053053;28;20210;-68
2021/10/14 04:23:35;;;;;;;25.10;14.83;;;5.00;99.90;;;;;;5057549;28;20697;-68
2021/10/14 04:26:02;;;;;;;29.27;15.23;;;4.90;99.90;;;;;;5070606;28;20224;-69
2021/10/14 04:28:31;;;;;;;23.10;13.43;;;4.90;99.90;;;;;;5052904;28;20331;-68
2021/10/14 04:30:58;;;;;;;26.73;13.97;;;4.90;99.90;;;;;;5057280;28;20205;-68
2021/10/14 04:33:25;;;;;;;20.70;12.97;;;4.80;99.90;;;;;;5068833;28;20205;-68
2021/10/14 04:35:52;;;;;;;24.50;14.40;;;4.80;99.90;;;;;;5060104;28;20225;-69
2021/10/14 04:38:19;;;;;;;25.30;14.13;;;4.80;99.90;;;;;;5057291;28;20294;-68
2021/10/14 04:40:46;;;;;;;24.43;14.17;;;4.80;99.90;;;;;;5052273;28;20213;-68
2021/10/14 04:43:13;;;;;;;26.63;14.43;;;4.80;99.90;;;;;;5052250;28;20674;-69
2021/10/14 04:45:41;;;;;;;26.90;15.57;;;4.80;99.90;;;;;;5054150;28;20205;-69
2021/10/14 04:48:08;;;;;;;27.83;15.30;;;4.80;99.90;;;;;;5052757;28;20303;-68
2021/10/14 04:50:35;;;;;;;30.00;16.03;;;4.80;99.90;;;;;;5064900;28;20209;-69
2021/10/14 04:53:01;;;;;;;28.03;14.47;;;4.80;99.90;;;;;;5067389;28;20285;-68
2021/10/14 04:55:28;;;;;;;25.67;15.73;;;4.80;99.90;;;;;;5053368;28;20210;-68
2021/10/14 04:57:55;;;;;;;26.93;14.23;;;4.80;99.90;;;;;;5066470;28;20214;-69
2021/10/14 05:00:22;;;;;;;25.27;15.37;;;4.70;99.90;;;;;;5052805;28;20216;-68
2021/10/14 05:02:50;;;;;;;29.50;16.30;;;4.70;99.90;;;;;;5061441;28;20251;-69
2021/10/14 05:05:17;;;;;;;29.03;16.10;;;4.80;99.90;;;;;;5052979;28;20626;-69
2021/10/14 05:07:44;;;;;;;30.93;16.70;;;4.80;99.90;;;;;;5060704;28;20217;-68
2021/10/14 05:10:11;;;;;;;27.17;15.77;;;4.80;99.90;;;;;;5056314;28;20202;-69
2021/10/14 05:12:38;;;;;;;30.03;16.20;;;4.90;99.90;;;;;;5052104;28;20212;-69
2021/10/14 05:15:06;;;;;;;30.10;15.93;;;4.90;99.90;;;;;;5052152;28;20206;-68
2021/10/14 05:17:34;;;;;;;27.17;16.33;;;4.90;99.90;;;;;;5059638;28;20236;-69
2021/10/14 05:20:03;;;;;;;23.13;14.23;;;4.90;99.90;;;;;;5067389;28;20289;-71
2021/10/14 05:22:30;;;;;;;37.43;16.93;;;4.80;99.90;;;;;;5071761;28;20211;-69
2021/10/14 05:24:57;;;;;;;27.83;15.17;;;4.70;99.90;;;;;;5076415;28;20205;-70
2021/10/14 05:27:24;;;;;;;35.37;16.13;;;4.70;99.90;;;;;;5063953;28;20227;-71
2021/10/14 05:29:51;;;;;;;27.83;15.43;;;4.60;99.90;;;;;;5070372;28;20757;-73
2021/10/14 05:32:18;;;;;;;29.63;15.10;;;4.60;99.90;;;;;;5076376;28;20295;-71
2021/10/14 05:34:44;;;;;;;26.63;15.20;;;4.60;99.90;;;;;;5067801;28;20202;-70
2021/10/14 05:37:13;;;;;;;27.23;15.47;;;4.70;99.90;;;;;;5071649;28;20224;-70
2021/10/14 05:39:39;;;;;;;23.63;14.70;;;4.70;99.90;;;;;;5066854;28;20316;-70
2021/10/14 05:42:06;;;;;;;23.50;13.60;;;4.70;99.90;;;;;;5068535;28;20229;-71
2021/10/14 05:44:33;;;;;;;26.37;14.23;;;4.80;99.90;;;;;;5076691;28;20259;-72
2021/10/14 05:47:00;;;;;;;24.80;14.03;;;4.90;99.90;;;;;;5075969;28;20202;-72
2021/10/14 05:49:27;;;;;;;23.07;13.80;;;4.80;99.90;;;;;;5066293;28;20304;-73
2021/10/14 05:51:54;;;;;;;24.37;14.53;;;4.90;99.90;;;;;;5076753;28;20758;-71
2021/10/14 05:54:22;;;;;;;26.03;14.67;;;4.90;99.90;;;;;;5071441;28;20204;-71
2021/10/14 05:56:49;;;;;;;24.17;14.27;;;4.90;99.90;;;;;;5064731;28;20335;-71
2021/10/14 05:59:16;;;;;;;24.63;14.90;;;4.90;99.90;;;;;;5066043;28;20197;-72
2021/10/14 06:01:43;;;;;;;28.17;14.50;;;5.00;99.90;;;;;;5068391;28;20205;-70
2021/10/14 06:04:10;;;;;;;22.07;14.07;;;5.00;99.90;;;;;;5077104;28;20590;-74
2021/10/14 06:06:37;;;;;;;22.67;14.33;;;5.00;99.90;;;;;;5075424;28;20281;-72
2021/10/14 06:09:05;;;;;;;22.73;14.20;;;5.10;99.90;;;;;;5059949;28;20214;-72
2021/10/14 06:11:33;;;;;;;26.10;15.43;;;5.10;99.90;;;;;;5063691;28;20609;-71
2021/10/14 06:14:00;;;;;;;28.80;14.47;;;5.20;99.90;;;;;;5071494;28;20286;-70
2021/10/14 06:16:27;;;;;;;22.93;14.50;;;5.20;99.90;;;;;;5064178;28;20301;-69
2021/10/14 06:18:54;;;;;;;23.93;14.43;;;5.20;99.90;;;;;;5075678;28;20205;-71
2021/10/14 06:21:21;;;;;;;25.40;15.13;;;5.30;99.90;;;;;;5069375;28;20723;-70
2021/10/14 06:23:48;;;;;;;23.20;14.40;;;5.40;99.90;;;;;;5068676;28;20288;-73
2021/10/14 06:26:15;;;;;;;23.00;14.93;;;5.50;99.90;;;;;;5062857;28;20230;-70
2021/10/14 06:28:43;;;;;;;25.40;15.00;;;5.60;99.90;;;;;;5074224;28;20229;-72
2021/10/14 06:31:10;;;;;;;27.97;15.13;;;5.60;99.90;;;;;;5071219;28;20213;-71
2021/10/14 06:33:37;;;;;;;23.00;14.60;;;5.60;99.90;;;;;;5062425;28;20236;-71
2021/10/14 06:36:04;;;;;;;23.97;13.70;;;5.70;99.90;;;;;;5070350;28;20313;-71
2021/10/14 06:38:31;;;;;;;25.73;14.17;;;5.70;99.90;;;;;;5063447;28;20210;-72
2021/10/14 06:40:58;;;;;;;25.63;14.70;;;5.70;99.90;;;;;;5068549;28;20285;-71
2021/10/14 06:43:25;;;;;;;25.83;14.70;;;5.80;99.90;;;;;;5056080;28;20361;-72
2021/10/14 06:45:53;;;;;;;28.63;15.53;;;5.90;99.90;;;;;;5073854;28;20208;-70
2021/10/14 06:48:20;;;;;;;29.63;16.67;;;6.00;99.90;;;;;;5075760;28;20628;-70
2021/10/14 06:50:47;;;;;;;25.50;16.03;;;6.10;99.90;;;;;;5063535;28;20634;-70
2021/10/14 06:53:14;;;;;;;29.03;15.20;;;6.30;99.90;;;;;;5056922;28;20213;-69
2021/10/14 06:55:42;;;;;;;28.03;16.53;;;6.50;99.90;;;;;;5066806;28;20563;-70
2021/10/14 06:58:08;;;;;;;21.90;14.83;;;6.80;99.90;;;;;;5057332;28;20220;-70
2021/10/14 07:00:35;;;;;;;27.67;16.03;;;7.00;99.90;;;;;;5056276;28;20297;-69
2021/10/14 07:03:04;;;;;;;27.77;16.17;;;7.20;99.90;;;;;;5054785;28;20293;-68
2021/10/14 07:05:31;;;;;;;22.40;14.43;;;7.40;99.90;;;;;;5059851;28;20673;-69
2021/10/14 07:07:58;;;;;;;25.07;15.37;;;7.50;99.90;;;;;;5063899;28;20213;-68
2021/10/14 07:10:25;;;;;;;28.57;16.53;;;7.70;99.90;;;;;;5057680;28;20204;-69
2021/10/14 07:12:52;;;;;;;26.20;16.17;;;7.80;99.90;;;;;;5053477;28;20304;-68
2021/10/14 07:15:20;;;;;;;28.20;17.93;;;7.80;99.90;;;;;;5061877;28;20213;-69
2021/10/14 07:17:47;;;;;;;26.37;16.83;;;8.00;99.90;;;;;;5056064;28;20216;-69
2021/10/14 07:20:15;;;;;;;32.97;17.60;;;8.20;99.90;;;;;;5060560;28;20296;-67
2021/10/14 07:22:42;;;;;;;26.80;17.83;;;8.50;99.90;;;;;;5060533;28;20206;-67
2021/10/14 07:25:10;;;;;;;26.17;17.80;;;8.80;99.90;;;;;;5069669;28;20217;-68
2021/10/14 07:27:37;;;;;;;30.30;18.43;;;8.90;99.90;;;;;;5073302;28;20623;-68
2021/10/14 07:30:05;;;;;;;27.57;17.53;;;9.00;99.90;;;;;;5074246;28;20233;-69
2021/10/14 07:32:32;;;;;;;29.93;18.60;;;9.00;99.90;;;;;;5073937;28;20211;-68
2021/10/14 07:34:59;;;;;;;27.00;18.07;;;9.20;99.90;;;;;;5072867;28;20242;-69
2021/10/14 07:37:27;;;;;;;33.27;18.90;;;9.30;99.90;;;;;;5065551;28;20320;-71
2021/10/14 07:39:54;;;;;;;33.30;18.43;;;9.40;99.90;;;;;;5068991;28;20201;-70
2021/10/14 07:42:20;;;;;;;30.60;19.57;;;9.40;99.90;;;;;;5073455;28;20197;-70
2021/10/14 07:44:47;;;;;;;37.27;19.30;;;9.50;99.90;;;;;;5069635;28;20225;-68
2021/10/14 07:47:14;;;;;;;29.67;18.07;;;9.60;99.90;;;;;;5056517;28;20216;-69
2021/10/14 07:49:41;;;;;;;25.30;17.03;;;9.70;99.90;;;;;;5066219;28;20698;-69
2021/10/14 07:52:08;;;;;;;24.07;14.90;;;9.90;99.90;;;;;;5066253;28;20222;-71
2021/10/14 07:54:37;;;;;;;22.43;14.77;;;9.90;99.90;;;;;;5066672;28;20689;-70
2021/10/14 07:57:04;;;;;;;26.97;15.57;;;10.00;99.90;;;;;;5060841;28;20701;-70
2021/10/14 07:59:31;;;;;;;23.97;15.23;;;10.10;99.90;;;;;;5069845;28;20216;-69
2021/10/14 08:01:57;;;;;;;19.73;13.53;;;10.30;99.90;;;;;;5064047;28;20220;-68
2021/10/14 08:04:24;;;;;;;20.93;13.63;;;10.40;99.90;;;;;;5067649;28;20217;-68
2021/10/14 08:06:51;;;;;;;18.13;11.67;;;10.70;99.90;;;;;;5059315;28;20352;-69
2021/10/14 08:09:18;;;;;;;15.00;9.23;;;11.00;99.90;;;;;;5062538;28;20213;-68
2021/10/14 08:11:46;;;;;;;12.50;8.67;;;11.30;99.90;;;;;;5063744;28;20250;-69
2021/10/14 08:14:13;;;;;;;12.93;7.90;;;11.60;99.90;;;;;;5071594;28;20201;-70
2021/10/14 08:16:40;;;;;;;12.97;7.93;;;11.90;99.90;;;;;;5066873;28;20202;-70
2021/10/14 08:19:07;;;;;;;13.80;10.02;;;12.10;99.90;;;;;;5070952;28;20444;-69
2021/10/14 08:21:34;;;;;;;15.10;9.13;;;12.40;99.90;;;;;;5068663;28;20705;-70
2021/10/14 08:24:01;;;;;;;14.53;9.63;;;12.60;99.90;;;;;;5065556;28;20231;-69
2021/10/14 08:26:28;;;;;;;17.17;10.40;;;12.80;99.90;;;;;;5071665;28;20304;-68
2021/10/14 08:28:56;;;;;;;15.47;9.17;;;12.80;99.90;;;;;;5062417;28;20237;-71
2021/10/14 08:31:24;;;;;;;14.53;9.90;;;12.90;99.90;;;;;;5071537;28;20237;-69
2021/10/14 08:33:52;;;;;;;14.07;8.73;;;13.00;99.90;;;;;;5054424;28;20218;-69
2021/10/14 08:36:19;;;;;;;16.10;8.70;;;13.20;99.90;;;;;;5064924;28;20713;-69
2021/10/14 08:38:47;;;;;;;17.27;10.67;;;13.60;99.90;;;;;;5065291;28;20210;-69
2021/10/14 08:41:18;;;;;;;10.90;8.17;;;14.00;99.90;;;;;;5070265;28;20617;-69
2021/10/14 08:43:47;;;;;;;11.63;9.38;;;14.20;99.40;;;;;;5064414;28;20432;-71
2021/10/14 08:46:16;;;;;;;12.37;8.90;;;14.30;97.80;;;;;;5058991;28;20724;-70
2021/10/14 08:48:43;;;;;;;16.53;9.30;;;14.50;98.80;;;;;;5065572;28;20231;-71
2021/10/14 08:51:10;;;;;;;11.33;6.83;;;14.90;99.90;;;;;;5056797;28;20202;-70
2021/10/14 08:53:38;;;;;;;7.85;6.00;;;16.70;99.90;;;;;;5056860;28;20209;-70
2021/10/14 08:56:06;;;;;;;13.82;7.57;;;19.70;91.00;;;;;;5056653;28;20202;-71
2021/10/14 08:58:33;;;;;;;12.27;7.63;;;22.80;73.70;;;;;;5055274;28;20643;-71
2021/10/14 09:01:11;;;;;;;10.73;6.60;;;25.80;57.40;;;;;;5058187;28;20285;-71
2021/10/14 09:03:43;;;;;;;15.40;5.60;;;28.20;48.30;;;;;;5063533;28;20224;-71
2021/10/14 09:06:11;;;;;;;11.55;6.75;;;30.30;42.60;;;;;;5059133;28;20232;-71
2021/10/14 09:08:40;;;;;;;9.02;5.45;;;32.10;39.10;;;;;;5054199;28;20301;-71
2021/10/14 09:11:10;;;;;;;9.75;5.70;;;33.40;36.70;;;;;;5052895;28;20236;-71
2021/10/14 09:13:37;;;;;;;6.88;5.30;;;34.60;34.30;;;;;;5059558;28;20198;-71
2021/10/14 09:16:28;;;;;;;5.72;4.63;;;35.70;32.00;;;;;;5061916;28;20212;-70
2021/10/14 09:18:57;;;;;;;5.82;4.55;;;36.20;30.40;;;;;;5052187;28;20198;-70
2021/10/14 09:21:27;;;;;;;6.05;4.43;;;37.00;29.60;;;;;;5052871;28;20405;-69
2021/10/14 09:23:55;;;;;;;6.45;4.40;;;37.70;29.10;;;;;;5052102;28;20202;-71
2021/10/14 09:26:30;;;;;;;5.75;5.15;;;38.40;28.10;;;;;;5052185;28;20208;-70
2021/10/14 09:29:09;;;;;;;6.82;4.70;;;39.00;27.80;;;;;;5056691;28;20319;-71
2021/10/14 09:31:54;;;;;;;5.40;4.20;;;39.20;27.10;;;;;;5055392;28;20669;-70
2021/10/14 09:34:25;;;;;;;4.95;3.47;;;39.70;27.00;;;;;;5055355;28;20198;-71
2021/10/14 09:36:52;;;;;;;4.50;3.67;;;40.20;26.40;;;;;;5058798;28;20232;-71
2021/10/14 09:39:20;;;;;;;4.70;3.53;;;40.90;26.00;;;;;;5055183;28;20202;-71
2021/10/14 09:41:47;;;;;;;4.47;3.33;;;41.30;25.50;;;;;;5052487;28;20213;-71
2021/10/14 09:44:14;;;;;;;4.40;3.60;;;41.90;24.90;;;;;;5058154;28;20312;-71
2021/10/14 09:46:43;;;;;;;4.47;3.38;;;42.30;24.50;;;;;;5057305;28;20906;-71
2021/10/14 09:49:11;;;;;;;4.05;3.28;;;42.60;24.20;;;;;;5060238;28;20209;-71
2021/10/14 09:51:40;;;;;;;4.18;3.20;;;43.00;24.00;;;;;;5056100;28;20292;-70
2021/10/14 09:54:08;;;;;;;3.47;3.17;;;43.40;23.50;;;;;;5056652;28;20216;-71
2021/10/14 09:56:36;;;;;;;4.10;2.88;;;43.90;23.50;;;;;;5052290;28;20641;-71
2021/10/14 09:59:03;;;;;;;3.95;3.13;;;44.50;23.10;;;;;;5058128;28;20677;-71
2021/10/14 10:01:31;;;;;;;3.60;2.88;;;44.90;23.00;;;;;;5055318;28;20206;-71
2021/10/14 10:03:58;;;;;;;3.72;3.13;;;45.50;22.50;;;;;;5058087;28;20275;-71
2021/10/14 10:06:28;;;;;;;4.75;3.38;;;45.70;22.30;;;;;;5058224;28;20566;-70
2021/10/14 10:09:00;;;;;;;4.35;2.58;;;45.80;22.10;;;;;;5062331;28;20296;-72
2021/10/14 10:11:29;;;;;;;4.68;3.17;;;45.20;21.40;;;;;;5074369;28;20197;-72
2021/10/14 10:13:58;;;;;;;2.72;2.42;;;44.50;22.10;;;;;;5064390;28;20212;-70
2021/10/14 10:16:26;;;;;;;3.38;2.50;;;44.40;22.00;;;;;;5059341;28;20201;-71
2021/10/14 10:18:54;;;;;;;5.53;3.03;;;42.80;21.70;;;;;;5074993;28;20638;-71
2021/10/14 10:21:43;;;;;;;4.53;2.70;;;40.10;22.50;;;;;;5062827;28;20611;-71
2021/10/14 10:24:31;;;;;;;2.45;2.25;;;37.10;24.50;;;;;;5058437;28;20224;-70
2021/10/14 10:27:03;;;;;;;3.28;2.53;;;36.10;25.30;;;;;;5062960;28;20201;-71
2021/10/14 10:29:48;;;;;;;3.58;2.92;;;34.10;25.60;;;;;;5066611;28;20243;-70
2021/10/14 10:32:24;;;;;;;3.58;2.72;;;31.70;27.60;;;;;;5076034;28;20215;-70
2021/10/14 10:35:02;;;;;;;4.60;3.33;;;31.20;29.90;;;;;;5070791;28;20246;-70
2021/10/14 10:37:49;;;;;;;4.32;3.05;;;32.00;29.40;;;;;;5061835;28;20240;-72
2021/10/14 10:40:25;;;;;;;3.20;2.60;;;33.10;28.00;;;;;;5067100;28;20217;-71
2021/10/14 10:43:00;;;;;;;3.55;2.88;;;33.40;27.90;;;;;;5065580;28;20270;-70
2021/10/14 10:45:29;;;;;;;3.95;3.25;;;32.60;27.20;;;;;;5067978;28;20295;-70
2021/10/14 10:48:02;;;;;;;5.20;2.92;;;32.20;27.70;;;;;;5074079;28;20201;-70
2021/10/14 10:50:56;;;;;;;3.63;2.80;;;30.90;28.00;;;;;;5076661;28;20282;-71
2021/10/14 10:53:38;;;;;;;3.80;3.20;;;30.30;31.40;;;;;;5063838;28;20205;-70
2021/10/14 10:56:07;;;;;;;3.92;3.33;;;32.00;29.10;;;;;;5067485;28;20260;-70
2021/10/14 10:58:48;;;;;;;4.38;3.30;;;33.20;29.00;;;;;;5063735;28;20210;-70
2021/10/14 11:01:18;;;;;;;6.80;3.80;;;34.80;27.70;;;;;;5062539;28;20205;-70
2021/10/14 11:03:53;;;;;;;4.95;3.40;;;36.70;26.40;;;;;;5061782;28;20205;-69
2021/10/14 11:06:22;;;;;;;5.40;3.70;;;38.90;25.30;;;;;;5069352;28;20294;-70
2021/10/14 11:08:49;;;;;;;4.13;3.60;;;40.70;24.00;;;;;;5055345;28;20224;-69
2021/10/14 11:11:21;;;;;;;4.60;3.63;;;40.70;23.20;;;;;;5058838;28;20232;-70
2021/10/14 11:13:50;;;;;;;4.38;3.70;;;39.40;23.00;;;;;;5061358;28;20651;-70
2021/10/14 11:16:18;;;;;;;5.97;4.03;;;36.90;24.00;;;;;;5056401;28;20664;-69
2021/10/14 11:18:47;;;;;;;4.40;3.15;;;34.20;25.80;;;;;;5074355;28;20276;-70
2021/10/14 11:21:17;;;;;;;4.47;3.53;;;31.70;27.20;;;;;;5067043;28;20217;-69
2021/10/14 11:23:46;;;;;;;5.97;3.75;;;30.10;29.70;;;;;;5068218;28;20654;-69
2021/10/14 11:26:14;;;;;;;6.28;3.72;;;29.40;30.10;;;;;;5070990;28;20232;-69
2021/10/14 11:29:01;;;;;;;5.60;3.97;;;28.70;30.50;;;;;;5059499;28;20240;-70
2021/10/14 11:31:35;;;;;;;6.55;3.75;;;28.00;31.50;;;;;;5055225;28;20205;-70
2021/10/14 11:34:21;;;;;;;5.90;4.00;;;27.50;34.40;;;;;;5057521;28;20605;-70
2021/10/14 11:36:51;;;;;;;6.05;4.22;;;27.90;32.70;;;;;;5064203;28;20224;-70
2021/10/14 11:39:19;;;;;;;6.13;4.32;;;27.60;31.80;;;;;;5069321;28;20216;-71
2021/10/14 11:41:54;;;;;;;6.30;4.50;;;26.60;32.90;;;;;;5072597;28;20216;-68
2021/10/14 11:44:22;;;;;;;8.57;4.05;;;25.50;35.00;;;;;;5052854;28;20211;-69
2021/10/14 11:46:49;;;;;;;5.32;4.03;;;24.60;36.00;;;;;;5060410;28;20233;-70
2021/10/14 11:49:16;;;;;;;5.78;4.03;;;23.70;36.80;;;;;;5070954;28;20208;-70
2021/10/14 11:51:42;;;;;;;9.85;4.63;;;22.80;38.40;;;;;;5072148;28;20209;-69
2021/10/14 11:54:12;;;;;;;6.28;4.95;;;21.90;39.30;;;;;;5057702;28;20206;-69
2021/10/14 11:56:44;;;;;;;7.70;4.35;;;21.00;40.30;;;;;;5051702;28;20202;-68
2021/10/14 11:59:11;;;;;;;9.65;6.18;;;20.10;42.80;;;;;;5051478;28;20216;-68
2021/10/14 12:01:54;;;;;;;7.65;5.47;;;19.30;43.70;;;;;;5059318;28;20642;-69
2021/10/14 12:04:23;;;;;;;6.95;4.63;;;18.60;45.80;;;;;;5059299;28;20646;-68
2021/10/14 12:06:50;;;;;;;6.95;3.95;;;18.20;46.70;;;;;;5060570;28;20690;-68
2021/10/14 12:09:18;;;;;;;6.85;4.45;;;17.80;46.70;;;;;;5057592;28;20218;-69
2021/10/14 12:11:45;;;;;;;6.85;4.20;;;17.40;46.80;;;;;;5069061;28;20903;-70
2021/10/14 12:14:12;;;;;;;4.72;3.10;;;17.00;47.30;;;;;;5053048;28;20681;-68
2021/10/14 12:16:39;;;;;;;5.78;3.67;;;16.60;47.60;;;;;;5057157;28;20211;-71
2021/10/14 12:19:17;;;;;;;5.53;3.60;;;16.20;48.20;;;;;;5062978;28;20197;-70
2021/10/14 12:21:46;;;;;;;4.87;3.60;;;15.80;49.00;;;;;;5060454;28;20198;-70
2021/10/14 12:24:18;;;;;;;5.57;4.03;;;15.50;49.60;;;;;;5063189;28;20204;-69
2021/10/14 12:26:46;;;;;;;4.23;3.83;;;15.30;51.00;;;;;;5071926;28;20702;-69
2021/10/14 12:29:24;;;;;;;5.07;3.70;;;15.00;50.90;;;;;;5065698;28;20728;-69
2021/10/14 12:32:08;;;;;;;4.77;3.50;;;14.70;51.70;;;;;;5071584;28;20197;-70
2021/10/14 12:34:48;;;;;;;8.13;3.80;;;14.40;52.60;;;;;;5065434;28;20205;-71
2021/10/14 12:37:16;;;;;;;5.63;3.80;;;14.20;53.40;;;;;;5064197;28;20231;-70
2021/10/14 12:39:43;;;;;;;7.30;4.20;;;14.10;54.70;;;;;;5062336;28;20300;-69
2021/10/14 12:42:13;;;;;;;6.17;3.70;;;14.00;54.70;;;;;;5057294;28;20201;-71
2021/10/14 12:45:00;;;;;;;7.03;4.37;;;13.90;55.40;;;;;;5069386;28;20205;-71
2021/10/14 12:47:46;;;;;;;7.93;4.30;;;13.90;56.00;;;;;;5072786;28;20206;-70